首页
METAR-TAF:

METAR-TAF

机场 :

蓬塔阿雷纳斯, 智利

纬度: 53-00S, 经度: 070-51W, 海拔: 37米

当前天气观测

该预报发布于13分钟前的12:00 UTC
风速6节,风向北转东北
温度 11°C
湿度 82%
气压 1000 hPa
能见度10公里或以上
散云层高于4500英尺
散云层高于8000英尺
多云层高于10000英尺

METAR: SCCI 091200Z 02006KT 9999 SCT045 SCT080 BKN100 11/08 Q1000 NOSIG

时间: 08:13 (12:13 UTC)

预报

该预报发布于1小时和15分钟前的10:58 UTC
预报有效从09日的 12点(UTC)到 10日的 12点(UTC)
风速8节,风向
能见度10公里或以上
1500米以下无云,无积雨云
成为
从 09日的 16点(UTC)到 09日的 18点(UTC)
风速12节,风向西北
成为
从 09日的 20点(UTC)到 09日的 22点(UTC)
风速20节,风向西,有时为32节阵风
能见度10公里或以上
散云层高于6000英尺
成为
从 10日的 05点(UTC)到 10日的 07点(UTC)
风速30节,风向西转西北,有时为42节阵风
散云层高于4200英尺

TAF: SCCI 091058Z 0912/1012 36008KT CAVOK TN07/1010Z TX17/0918Z BECMG 0916/0918 31012KT BECMG 0920/0922 27020G32KT 9999 SCT060 BECMG 1005/1007 30030G42KT SCT042

超过4000个机场的气象观测和天气预报(METAR&TAF报告)。

可查询的气象台以黄色和红色小点在地图上表示。

将鼠标移到小点上方,可查看气象台名称。

然后点击查看天气观测和预报。

如需切换地图:点击带黑十字的绿色按钮放大地图;点击带横线的绿色按钮缩小地图;或者点击绿色箭头查看邻近地区的地图。


METAR-TAF: